createdAt,value
2023-01-19T00:02:12.294Z,99293.33
2023-01-19T00:07:14.410Z,99300.56
2023-01-19T00:12:15.980Z,99307.63
2023-01-19T00:17:19.284Z,99315.58
2023-01-19T00:22:20.844Z,99328.79
2023-01-19T00:27:22.401Z,99331.48
2023-01-19T00:32:23.893Z,99336.09
2023-01-19T00:37:25.411Z,99346.94
2023-01-19T00:42:44.778Z,99348.42
2023-01-19T00:47:48.107Z,99352.17
2023-01-19T00:52:49.958Z,99349.63
2023-01-19T00:57:51.837Z,99345.05
2023-01-19T01:02:54.408Z,99333.20
2023-01-19T01:07:56.146Z,99329.41
2023-01-19T01:12:59.082Z,99325.37
2023-01-19T01:18:00.876Z,99325.30
2023-01-19T01:23:03.669Z,99332.10
2023-01-19T01:28:08.684Z,99332.55
2023-01-19T01:33:11.895Z,99335.84
2023-01-19T01:38:13.391Z,99335.64
2023-01-19T01:43:18.066Z,99338.38
2023-01-19T01:48:30.828Z,99344.98
2023-01-19T01:53:34.794Z,99342.89
2023-01-19T01:58:38.898Z,99343.52
2023-01-19T02:03:40.563Z,99331.61
2023-01-19T02:09:11.062Z,99324.62
2023-01-19T02:14:12.547Z,99322.02
2023-01-19T02:19:19.954Z,99317.94
2023-01-19T02:24:21.890Z,99313.40
2023-01-19T02:29:26.225Z,99317.05
2023-01-19T02:34:28.275Z,99319.64
2023-01-19T02:39:33.711Z,99323.79
2023-01-19T02:44:37.535Z,99310.68
2023-01-19T02:49:39.036Z,99310.94
2023-01-19T02:54:58.618Z,99308.62
2023-01-19T03:00:28.160Z,99313.38
2023-01-19T03:05:41.842Z,99320.60
2023-01-19T03:11:03.607Z,99319.05
2023-01-19T03:16:07.368Z,99327.36
2023-01-19T03:21:11.541Z,99331.83
2023-01-19T03:26:19.727Z,99338.55
2023-01-19T03:31:26.418Z,99341.86
2023-01-19T03:36:50.758Z,99352.52
2023-01-19T03:41:57.387Z,99364.08
2023-01-19T03:47:00.364Z,99360.94
2023-01-19T03:52:02.168Z,99363.23
2023-01-19T03:57:03.853Z,99366.19
2023-01-19T04:02:05.416Z,99371.00
2023-01-19T04:07:07.001Z,99384.34
2023-01-19T04:12:09.151Z,99393.34
2023-01-19T04:17:11.145Z,99390.38
2023-01-19T04:22:12.927Z,99396.62
2023-01-19T04:27:16.665Z,99404.90
2023-01-19T04:32:18.707Z,99412.05
2023-01-19T04:37:20.261Z,99409.88
2023-01-19T04:42:22.354Z,99420.70
2023-01-19T04:47:23.860Z,99425.48
2023-01-19T04:52:25.767Z,99430.29
2023-01-19T04:57:27.422Z,99437.63
2023-01-19T05:02:29.046Z,99432.41
2023-01-19T05:07:31.058Z,99443.83
2023-01-19T05:12:34.297Z,99455.98
2023-01-19T05:17:36.605Z,99459.44
2023-01-19T05:22:39.220Z,99461.52
2023-01-19T05:27:41.157Z,99451.02
2023-01-19T05:32:42.846Z,99459.70
2023-01-19T05:37:44.549Z,99464.64
2023-01-19T05:42:46.592Z,99462.08
2023-01-19T05:47:48.363Z,99459.86
2023-01-19T05:52:49.854Z,99461.45
2023-01-19T05:57:51.914Z,99464.55
2023-01-19T06:02:54.037Z,99462.73
2023-01-19T06:07:57.611Z,99469.23
2023-01-19T06:12:59.579Z,99490.20
2023-01-19T06:18:01.339Z,99510.44
2023-01-19T06:23:04.018Z,99530.13
2023-01-19T06:28:05.689Z,99541.35
2023-01-19T06:33:07.188Z,99548.02
2023-01-19T06:38:08.681Z,99554.98
2023-01-19T06:43:11.681Z,99545.29
2023-01-19T06:48:13.196Z,99545.81
2023-01-19T06:53:16.801Z,99545.64
2023-01-19T06:58:18.328Z,99542.23
2023-01-19T07:03:22.764Z,99534.20
2023-01-19T07:08:24.375Z,99529.86
2023-01-19T07:13:27.342Z,99526.06
2023-01-19T07:18:29.307Z,99536.52
2023-01-19T07:23:30.863Z,99543.70
2023-01-19T07:28:33.002Z,99544.76
2023-01-19T07:33:34.555Z,99542.78
2023-01-19T07:38:36.095Z,99537.42
2023-01-19T07:43:38.339Z,99544.30
2023-01-19T07:48:39.903Z,99551.00
2023-01-19T07:53:42.230Z,99567.38
2023-01-19T07:58:44.286Z,99567.95
2023-01-19T08:03:48.662Z,99562.77
2023-01-19T08:08:50.712Z,99557.83
2023-01-19T08:13:52.374Z,99554.90
2023-01-19T08:18:53.882Z,99547.66
2023-01-19T08:23:58.118Z,99549.42
2023-01-19T08:29:02.680Z,99560.18
2023-01-19T08:34:04.227Z,99575.05
2023-01-19T08:39:06.266Z,99568.33
2023-01-19T08:44:07.794Z,99572.86
2023-01-19T08:49:09.913Z,99576.79
2023-01-19T08:54:11.503Z,99586.16
2023-01-19T08:59:14.170Z,99588.48
2023-01-19T09:04:15.911Z,99582.32
2023-01-19T09:09:17.707Z,99579.20
2023-01-19T09:14:19.592Z,99579.02
2023-01-19T09:19:21.602Z,99593.23
2023-01-19T09:24:23.188Z,99590.43
2023-01-19T09:29:24.660Z,99599.59
2023-01-19T09:34:26.562Z,99607.04
2023-01-19T09:39:28.190Z,99600.88
2023-01-19T09:44:34.561Z,99603.99
2023-01-19T09:49:41.509Z,99604.77
2023-01-19T09:54:56.339Z,99603.34
2023-01-19T09:59:59.609Z,99600.48
2023-01-19T10:05:05.232Z,99593.52
2023-01-19T10:10:32.617Z,99576.88
2023-01-19T10:16:15.906Z,99559.17
2023-01-19T10:21:28.308Z,99551.02
2023-01-19T10:26:47.486Z,99542.96
2023-01-19T10:31:53.075Z,99538.56
2023-01-19T10:37:13.264Z,99542.56
2023-01-19T10:42:17.332Z,99541.58
2023-01-19T10:47:21.323Z,99544.96
2023-01-19T10:52:34.307Z,99551.08
2023-01-19T10:57:41.007Z,99540.64
2023-01-19T11:02:50.811Z,99535.10
2023-01-19T11:07:52.555Z,99533.63
2023-01-19T11:13:03.621Z,99529.09
2023-01-19T11:18:06.950Z,99524.04
2023-01-19T11:23:29.669Z,99524.17
2023-01-19T11:28:42.014Z,99519.80
2023-01-19T11:33:53.810Z,99526.75
2023-01-19T11:39:00.545Z,99523.23
2023-01-19T11:44:20.745Z,99518.71
2023-01-19T11:49:33.846Z,99514.50
2023-01-19T12:00:17.550Z,99509.69
2023-01-19T12:05:21.425Z,99515.93
2023-01-19T12:10:28.375Z,99516.38
2023-01-19T12:15:38.974Z,99513.95
2023-01-19T12:20:46.339Z,99506.21
2023-01-19T12:26:06.833Z,99494.02
2023-01-19T12:31:09.242Z,99497.99
2023-01-19T12:36:16.884Z,99506.03
2023-01-19T12:41:38.715Z,99506.27
2023-01-19T12:46:42.897Z,99506.89
2023-01-19T12:51:45.808Z,99506.76
2023-01-19T12:56:47.352Z,99497.91
2023-01-19T13:02:20.015Z,99490.19
2023-01-19T13:07:21.553Z,99486.52
2023-01-19T13:12:25.269Z,99492.34
2023-01-19T13:17:32.042Z,99494.46
2023-01-19T13:22:51.751Z,99494.59
2023-01-19T13:27:54.018Z,99499.50
2023-01-19T13:33:06.425Z,99496.94
2023-01-19T13:38:14.180Z,99499.81
2023-01-19T13:43:21.230Z,99506.74
2023-01-19T13:48:24.807Z,99513.59
2023-01-19T13:53:26.496Z,99509.77
2023-01-19T13:58:29.288Z,99512.73
2023-01-19T14:03:31.063Z,99515.04
2023-01-19T14:08:33.867Z,99506.71
2023-01-19T14:13:43.251Z,99507.70
2023-01-19T14:18:45.049Z,99507.77
2023-01-19T14:23:51.601Z,99507.89
2023-01-19T14:28:53.326Z,99512.14
2023-01-19T14:33:56.365Z,99516.99
2023-01-19T14:39:01.594Z,99516.91
2023-01-19T14:44:10.398Z,99517.14
2023-01-19T14:49:41.988Z,99513.78
2023-01-19T14:54:46.328Z,99520.89
2023-01-19T14:59:49.761Z,99533.31
2023-01-19T15:04:55.310Z,99536.20
2023-01-19T15:09:59.815Z,99535.80
2023-01-19T15:15:02.256Z,99540.71
2023-01-19T15:20:04.087Z,99534.48
2023-01-19T15:25:06.331Z,99537.45
2023-01-19T15:30:27.780Z,99536.84
2023-01-19T15:35:29.421Z,99541.48
2023-01-19T15:40:31.784Z,99550.41
2023-01-19T15:45:37.679Z,99547.90
2023-01-19T15:50:42.338Z,99542.56
2023-01-19T15:55:44.883Z,99538.16
2023-01-19T16:00:54.394Z,99542.82
2023-01-19T16:05:59.745Z,99555.86
2023-01-19T16:11:09.002Z,99553.91
2023-01-19T16:16:19.608Z,99554.80
2023-01-19T16:21:21.280Z,99556.80
2023-01-19T16:26:25.828Z,99558.79
2023-01-19T16:31:28.889Z,99564.42
2023-01-19T16:36:35.166Z,99568.96
2023-01-19T16:41:37.117Z,99575.53
2023-01-19T16:46:40.987Z,99567.26
2023-01-19T16:51:43.194Z,99569.27
2023-01-19T16:56:45.628Z,99571.20
2023-01-19T17:01:48.109Z,99570.29
2023-01-19T17:06:52.993Z,99562.45
2023-01-19T17:11:55.067Z,99558.54
2023-01-19T17:16:56.674Z,99551.32
2023-01-19T17:21:58.189Z,99547.95
2023-01-19T17:27:00.107Z,99545.98
2023-01-19T17:32:01.666Z,99539.91
2023-01-19T17:37:03.662Z,99548.49
2023-01-19T17:42:05.202Z,99562.17
2023-01-19T17:47:06.718Z,99557.98
2023-01-19T17:52:08.248Z,99562.92
2023-01-19T17:57:10.026Z,99557.00
2023-01-19T18:02:11.941Z,99554.66
2023-01-19T18:07:13.617Z,99558.29
2023-01-19T18:12:16.108Z,99555.77
2023-01-19T18:17:18.599Z,99555.47
2023-01-19T18:22:20.214Z,99558.08
2023-01-19T18:27:22.421Z,99553.39
2023-01-19T18:32:25.781Z,99549.05
2023-01-19T18:37:28.745Z,99552.17
2023-01-19T18:42:30.537Z,99552.78
2023-01-19T18:47:33.661Z,99554.85
2023-01-19T18:52:35.236Z,99557.06
2023-01-19T18:57:36.904Z,99559.62
2023-01-19T19:02:40.012Z,99561.70
2023-01-19T19:07:41.738Z,99563.10
2023-01-19T19:12:43.613Z,99559.38
2023-01-19T19:17:45.531Z,99553.27
2023-01-19T19:22:47.498Z,99559.77
2023-01-19T19:27:52.691Z,99569.84
2023-01-19T19:32:56.268Z,99579.19
2023-01-19T19:37:58.559Z,99575.09
2023-01-19T19:43:00.134Z,99581.23
2023-01-19T19:48:02.830Z,99582.74
2023-01-19T19:53:04.338Z,99585.77
2023-01-19T19:58:05.878Z,99589.05
2023-01-19T20:03:13.435Z,99595.03
2023-01-19T20:08:15.018Z,99601.33
2023-01-19T20:13:19.335Z,99604.20
2023-01-19T20:18:20.969Z,99611.32
2023-01-19T20:23:22.570Z,99613.38
2023-01-19T20:28:25.113Z,99615.61
2023-01-19T20:33:26.596Z,99625.82
2023-01-19T20:38:28.178Z,99628.06
2023-01-19T20:43:31.173Z,99628.91
2023-01-19T20:48:32.834Z,99630.64
2023-01-19T20:53:35.270Z,99630.65
2023-01-19T20:58:38.059Z,99628.95
2023-01-19T21:03:40.131Z,99633.52
2023-01-19T21:08:43.008Z,99632.64
2023-01-19T21:13:44.838Z,99640.60
2023-01-19T21:18:46.337Z,99657.20
2023-01-19T21:23:48.255Z,99670.23
2023-01-19T21:28:50.663Z,99675.45
2023-01-19T21:33:53.945Z,99684.46
2023-01-19T21:39:00.220Z,99693.63
2023-01-19T21:44:02.619Z,99705.02
2023-01-19T21:49:06.634Z,99711.16
2023-01-19T21:54:08.318Z,99711.53
2023-01-19T21:59:15.450Z,99714.43
2023-01-19T22:04:16.987Z,99714.79
2023-01-19T22:09:18.510Z,99713.61
2023-01-19T22:14:20.009Z,99708.90
2023-01-19T22:19:21.652Z,99715.40
2023-01-19T22:24:23.433Z,99717.29
2023-01-19T22:29:24.940Z,99725.77
2023-01-19T22:34:26.484Z,99729.98
2023-01-19T22:39:28.521Z,99735.23
2023-01-19T22:44:30.594Z,99731.52
2023-01-19T22:49:32.204Z,99745.27
2023-01-19T22:54:33.878Z,99760.05
2023-01-19T22:59:35.475Z,99774.16
2023-01-19T23:04:37.206Z,99776.55
2023-01-19T23:09:38.765Z,99779.42
2023-01-19T23:14:40.434Z,99780.61
2023-01-19T23:19:42.039Z,99781.97
2023-01-19T23:24:43.516Z,99779.77
2023-01-19T23:29:45.184Z,99785.20
2023-01-19T23:34:48.545Z,99786.23
2023-01-19T23:39:50.048Z,99790.67
2023-01-19T23:44:52.101Z,99808.47
2023-01-19T23:49:54.192Z,99823.08
2023-01-19T23:54:56.303Z,99831.60
2023-01-19T23:59:57.797Z,99839.75
